This is the latest recevied weather packets stored in our database for station/object OM1PU-6. If no packets are shown the sender has not sent any weather packets the latest 10 day(s).
| Time | Temp. | Humidity | Pressure | Rain* | Wind** | Luminosity | Snow |
|---|---|---|---|---|---|---|---|
| 1788612960 | 25.56° C | 51% | 1015.5 hPa | 0 mm | - | - | - |
| 1788612061 | 25° C | 52% | 1015.6 hPa | 0 mm | - | - | - |
| 1788611161 | 25° C | 52% | 1015.8 hPa | 0 mm | - | - | - |
| 1788610261 | 24.44° C | 52% | 1015.6 hPa | 0 mm | - | - | - |
| 1788609361 | 24.44° C | 53% | 1015.6 hPa | 0 mm | - | - | - |
| 1788608460 | 24.44° C | 55% | 1015.8 hPa | 0 mm | - | - | - |
| 1788607560 | 23.89° C | 56% | 1015.9 hPa | 0 mm | - | - | - |
| 1788606660 | 21.67° C | 63% | 1016.1 hPa | 0 mm | - | - | - |
| 1788605761 | 20.56° C | 64% | 1016.1 hPa | 0 mm | - | - | - |
| 1788604861 | 20.56° C | 63% | 1016.2 hPa | 0 mm | - | - | - |
| 1788603960 | 20.56° C | 63% | 1016.4 hPa | 0 mm | - | - | - |
| 1788603060 | 20.56° C | 63% | 1016.4 hPa | 0 mm | - | - | - |
| 1788602161 | 20.56° C | 64% | 1016.4 hPa | 0 mm | - | - | - |
| 1788601260 | 20.56° C | 63% | 1016.4 hPa | 0 mm | - | - | - |
| 1788600361 | 21.67° C | 61% | 1016.6 hPa | 0 mm | - | - | - |
| 1788599461 | 21.11° C | 59% | 1016.5 hPa | 0 mm | - | - | - |
| 1788598561 | 20.56° C | 62% | 1016.5 hPa | 0 mm | - | - | - |
| 1788597660 | 20.56° C | 60% | 1016.4 hPa | 0 mm | - | - | - |
| 1788596760 | 21.11° C | 58% | 1016.4 hPa | 0 mm | - | - | - |
| 1788595861 | 21.11° C | 56% | 1016.3 hPa | 0 mm | - | - | - |
| 1788594960 | 21.11° C | 56% | 1016.2 hPa | 0 mm | - | - | - |
| 1788594060 | 20.56° C | 56% | 1016.4 hPa | 0 mm | - | - | - |
| 1788593161 | 20.56° C | 60% | 1016.4 hPa | 0 mm | - | - | - |
| 1788592261 | 21.11° C | 59% | 1016.1 hPa | 0 mm | - | - | - |
| 1788591360 | 21.67° C | 54% | 1015.9 hPa | 0 mm | - | - | - |
* Rain latest 24 hours (hover to see other rain measurements)
** Current wind speed in m/s (hover to see current wind gust speed)